sensor_id;sensor_type;location;lat;lon;timestamp;P1;durP1;ratioP1;P2;durP2;ratioP2
20437;SDS011;17436;50.338;8.810;2022-08-19T00:01:44;17.80;;;13.77;;
20437;SDS011;17436;50.338;8.810;2022-08-19T00:04:13;17.50;;;13.63;;
20437;SDS011;17436;50.338;8.810;2022-08-19T00:06:41;21.17;;;14.40;;
20437;SDS011;17436;50.338;8.810;2022-08-19T00:09:12;21.57;;;14.87;;
20437;SDS011;17436;50.338;8.810;2022-08-19T00:11:40;17.87;;;13.87;;
20437;SDS011;17436;50.338;8.810;2022-08-19T00:14:09;19.73;;;14.13;;
20437;SDS011;17436;50.338;8.810;2022-08-19T00:16:39;17.97;;;14.23;;
20437;SDS011;17436;50.338;8.810;2022-08-19T00:19:07;18.27;;;14.33;;
20437;SDS011;17436;50.338;8.810;2022-08-19T00:21:34;20.93;;;15.37;;
20437;SDS011;17436;50.338;8.810;2022-08-19T00:24:04;21.17;;;15.30;;
20437;SDS011;17436;50.338;8.810;2022-08-19T00:26:32;22.13;;;15.83;;
20437;SDS011;17436;50.338;8.810;2022-08-19T00:28:59;18.57;;;14.50;;
20437;SDS011;17436;50.338;8.810;2022-08-19T00:31:26;22.13;;;14.90;;
20437;SDS011;17436;50.338;8.810;2022-08-19T00:33:54;19.93;;;14.73;;
20437;SDS011;17436;50.338;8.810;2022-08-19T00:36:22;18.60;;;14.90;;
20437;SDS011;17436;50.338;8.810;2022-08-19T00:38:48;19.47;;;14.43;;
20437;SDS011;17436;50.338;8.810;2022-08-19T00:41:18;18.07;;;14.13;;
20437;SDS011;17436;50.338;8.810;2022-08-19T00:43:56;19.33;;;14.33;;
20437;SDS011;17436;50.338;8.810;2022-08-19T00:46:24;21.00;;;15.03;;
20437;SDS011;17436;50.338;8.810;2022-08-19T00:48:51;20.27;;;14.57;;
20437;SDS011;17436;50.338;8.810;2022-08-19T00:51:20;19.20;;;14.33;;
20437;SDS011;17436;50.338;8.810;2022-08-19T00:53:47;17.60;;;13.70;;
20437;SDS011;17436;50.338;8.810;2022-08-19T00:56:13;18.20;;;13.53;;
20437;SDS011;17436;50.338;8.810;2022-08-19T00:58:40;18.30;;;13.73;;
20437;SDS011;17436;50.338;8.810;2022-08-19T01:01:07;20.57;;;13.67;;
20437;SDS011;17436;50.338;8.810;2022-08-19T01:03:34;19.30;;;14.70;;
20437;SDS011;17436;50.338;8.810;2022-08-19T01:06:00;18.73;;;14.53;;
20437;SDS011;17436;50.338;8.810;2022-08-19T01:08:29;18.97;;;14.10;;
20437;SDS011;17436;50.338;8.810;2022-08-19T01:10:56;17.83;;;13.63;;
20437;SDS011;17436;50.338;8.810;2022-08-19T01:13:27;18.20;;;14.00;;
20437;SDS011;17436;50.338;8.810;2022-08-19T01:15:56;18.83;;;13.70;;
20437;SDS011;17436;50.338;8.810;2022-08-19T01:18:26;17.27;;;13.43;;
20437;SDS011;17436;50.338;8.810;2022-08-19T01:20:53;17.60;;;13.37;;
20437;SDS011;17436;50.338;8.810;2022-08-19T01:23:23;19.30;;;13.77;;
20437;SDS011;17436;50.338;8.810;2022-08-19T01:26:07;18.57;;;13.23;;
20437;SDS011;17436;50.338;8.810;2022-08-19T01:28:36;17.50;;;13.17;;
20437;SDS011;17436;50.338;8.810;2022-08-19T01:31:03;15.20;;;12.27;;
20437;SDS011;17436;50.338;8.810;2022-08-19T01:33:30;16.50;;;12.30;;
20437;SDS011;17436;50.338;8.810;2022-08-19T01:36:03;14.57;;;12.50;;
20437;SDS011;17436;50.338;8.810;2022-08-19T01:38:34;16.13;;;12.67;;
20437;SDS011;17436;50.338;8.810;2022-08-19T01:41:03;18.63;;;12.50;;
20437;SDS011;17436;50.338;8.810;2022-08-19T01:43:30;15.27;;;12.60;;
20437;SDS011;17436;50.338;8.810;2022-08-19T01:45:57;15.90;;;12.87;;
20437;SDS011;17436;50.338;8.810;2022-08-19T01:48:24;15.53;;;12.10;;
20437;SDS011;17436;50.338;8.810;2022-08-19T01:50:51;15.27;;;11.87;;
20437;SDS011;17436;50.338;8.810;2022-08-19T01:53:18;17.20;;;12.83;;
20437;SDS011;17436;50.338;8.810;2022-08-19T01:55:46;15.90;;;12.37;;
20437;SDS011;17436;50.338;8.810;2022-08-19T01:58:17;16.07;;;11.77;;
20437;SDS011;17436;50.338;8.810;2022-08-19T02:00:48;15.33;;;12.43;;
20437;SDS011;17436;50.338;8.810;2022-08-19T02:03:15;18.10;;;12.23;;
20437;SDS011;17436;50.338;8.810;2022-08-19T02:05:42;15.73;;;11.80;;
20437;SDS011;17436;50.338;8.810;2022-08-19T02:08:10;17.63;;;11.73;;
20437;SDS011;17436;50.338;8.810;2022-08-19T02:10:38;16.33;;;12.13;;
20437;SDS011;17436;50.338;8.810;2022-08-19T02:13:07;15.27;;;11.13;;
20437;SDS011;17436;50.338;8.810;2022-08-19T02:15:34;15.07;;;11.33;;
20437;SDS011;17436;50.338;8.810;2022-08-19T02:18:01;14.87;;;11.60;;
20437;SDS011;17436;50.338;8.810;2022-08-19T02:20:28;14.97;;;11.83;;
20437;SDS011;17436;50.338;8.810;2022-08-19T02:22:54;14.47;;;11.17;;
20437;SDS011;17436;50.338;8.810;2022-08-19T02:25:21;15.37;;;11.40;;
20437;SDS011;17436;50.338;8.810;2022-08-19T02:27:48;14.83;;;11.73;;
20437;SDS011;17436;50.338;8.810;2022-08-19T02:30:16;14.83;;;10.90;;
20437;SDS011;17436;50.338;8.810;2022-08-19T02:32:44;14.53;;;10.83;;
20437;SDS011;17436;50.338;8.810;2022-08-19T02:35:11;16.83;;;11.40;;
20437;SDS011;17436;50.338;8.810;2022-08-19T02:37:38;17.63;;;11.03;;
20437;SDS011;17436;50.338;8.810;2022-08-19T02:40:22;14.40;;;10.33;;
20437;SDS011;17436;50.338;8.810;2022-08-19T02:42:48;15.63;;;10.63;;
20437;SDS011;17436;50.338;8.810;2022-08-19T02:45:17;13.97;;;10.83;;
20437;SDS011;17436;50.338;8.810;2022-08-19T02:47:44;13.33;;;11.07;;
20437;SDS011;17436;50.338;8.810;2022-08-19T02:50:10;13.37;;;9.87;;
20437;SDS011;17436;50.338;8.810;2022-08-19T02:52:37;14.33;;;10.37;;
20437;SDS011;17436;50.338;8.810;2022-08-19T02:55:05;14.23;;;10.90;;
20437;SDS011;17436;50.338;8.810;2022-08-19T02:57:32;14.67;;;10.40;;
20437;SDS011;17436;50.338;8.810;2022-08-19T02:59:59;15.60;;;10.67;;
20437;SDS011;17436;50.338;8.810;2022-08-19T03:02:27;14.57;;;11.53;;
20437;SDS011;17436;50.338;8.810;2022-08-19T03:04:55;13.40;;;10.33;;
20437;SDS011;17436;50.338;8.810;2022-08-19T03:07:22;15.13;;;10.20;;
20437;SDS011;17436;50.338;8.810;2022-08-19T03:09:48;13.17;;;10.93;;
20437;SDS011;17436;50.338;8.810;2022-08-19T03:12:15;15.63;;;10.93;;
20437;SDS011;17436;50.338;8.810;2022-08-19T03:14:42;13.00;;;9.93;;
20437;SDS011;17436;50.338;8.810;2022-08-19T03:17:10;14.10;;;11.03;;
20437;SDS011;17436;50.338;8.810;2022-08-19T03:19:38;14.90;;;10.57;;
20437;SDS011;17436;50.338;8.810;2022-08-19T03:22:05;13.83;;;10.07;;
20437;SDS011;17436;50.338;8.810;2022-08-19T03:24:32;16.87;;;10.73;;
20437;SDS011;17436;50.338;8.810;2022-08-19T03:26:59;11.97;;;9.97;;
20437;SDS011;17436;50.338;8.810;2022-08-19T03:29:27;12.93;;;10.20;;
20437;SDS011;17436;50.338;8.810;2022-08-19T03:31:57;20.37;;;11.40;;
20437;SDS011;17436;50.338;8.810;2022-08-19T03:34:26;16.10;;;10.83;;
20437;SDS011;17436;50.338;8.810;2022-08-19T03:36:57;15.87;;;12.80;;
20437;SDS011;17436;50.338;8.810;2022-08-19T03:39:26;13.67;;;10.37;;
20437;SDS011;17436;50.338;8.810;2022-08-19T03:41:53;16.07;;;13.33;;
20437;SDS011;17436;50.338;8.810;2022-08-19T03:44:22;14.70;;;10.97;;
20437;SDS011;17436;50.338;8.810;2022-08-19T03:46:50;14.63;;;11.20;;
20437;SDS011;17436;50.338;8.810;2022-08-19T03:49:21;16.90;;;11.70;;
20437;SDS011;17436;50.338;8.810;2022-08-19T03:51:49;16.00;;;10.40;;
20437;SDS011;17436;50.338;8.810;2022-08-19T03:54:18;15.33;;;10.20;;
20437;SDS011;17436;50.338;8.810;2022-08-19T03:56:48;13.80;;;10.90;;
20437;SDS011;17436;50.338;8.810;2022-08-19T03:59:17;15.93;;;11.10;;
20437;SDS011;17436;50.338;8.810;2022-08-19T04:01:45;14.83;;;10.60;;
20437;SDS011;17436;50.338;8.810;2022-08-19T04:04:13;17.40;;;13.00;;
20437;SDS011;17436;50.338;8.810;2022-08-19T04:06:39;21.30;;;15.40;;
20437;SDS011;17436;50.338;8.810;2022-08-19T04:09:07;14.97;;;11.77;;
20437;SDS011;17436;50.338;8.810;2022-08-19T04:11:38;15.37;;;11.70;;
20437;SDS011;17436;50.338;8.810;2022-08-19T04:14:06;14.60;;;11.00;;
20437;SDS011;17436;50.338;8.810;2022-08-19T04:16:33;13.30;;;10.67;;
20437;SDS011;17436;50.338;8.810;2022-08-19T04:19:01;14.73;;;11.13;;
20437;SDS011;17436;50.338;8.810;2022-08-19T04:21:29;14.90;;;10.83;;
20437;SDS011;17436;50.338;8.810;2022-08-19T04:23:56;14.30;;;9.70;;
20437;SDS011;17436;50.338;8.810;2022-08-19T04:26:24;15.10;;;11.47;;
20437;SDS011;17436;50.338;8.810;2022-08-19T04:28:54;14.97;;;11.03;;
20437;SDS011;17436;50.338;8.810;2022-08-19T04:31:22;14.83;;;10.87;;
20437;SDS011;17436;50.338;8.810;2022-08-19T04:33:51;14.77;;;11.27;;
20437;SDS011;17436;50.338;8.810;2022-08-19T04:36:20;15.30;;;11.17;;
20437;SDS011;17436;50.338;8.810;2022-08-19T04:38:48;14.70;;;11.13;;
20437;SDS011;17436;50.338;8.810;2022-08-19T04:41:15;17.63;;;11.27;;
20437;SDS011;17436;50.338;8.810;2022-08-19T04:44:02;15.77;;;11.23;;
20437;SDS011;17436;50.338;8.810;2022-08-19T04:46:29;15.87;;;11.33;;
20437;SDS011;17436;50.338;8.810;2022-08-19T04:48:57;12.83;;;10.73;;
20437;SDS011;17436;50.338;8.810;2022-08-19T04:51:24;15.30;;;11.37;;
20437;SDS011;17436;50.338;8.810;2022-08-19T04:53:50;13.87;;;11.57;;
20437;SDS011;17436;50.338;8.810;2022-08-19T04:56:18;14.93;;;11.27;;
20437;SDS011;17436;50.338;8.810;2022-08-19T04:58:47;16.93;;;11.43;;
20437;SDS011;17436;50.338;8.810;2022-08-19T05:01:19;17.80;;;12.27;;
20437;SDS011;17436;50.338;8.810;2022-08-19T05:03:48;16.57;;;11.83;;
20437;SDS011;17436;50.338;8.810;2022-08-19T05:06:15;15.53;;;11.23;;
20437;SDS011;17436;50.338;8.810;2022-08-19T05:08:46;16.37;;;11.67;;
20437;SDS011;17436;50.338;8.810;2022-08-19T05:11:15;17.10;;;11.33;;
20437;SDS011;17436;50.338;8.810;2022-08-19T05:13:44;16.27;;;11.33;;
20437;SDS011;17436;50.338;8.810;2022-08-19T05:16:13;15.07;;;11.03;;
20437;SDS011;17436;50.338;8.810;2022-08-19T05:18:43;17.10;;;11.73;;
20437;SDS011;17436;50.338;8.810;2022-08-19T05:21:27;16.33;;;11.70;;
20437;SDS011;17436;50.338;8.810;2022-08-19T05:24:12;13.43;;;11.00;;
20437;SDS011;17436;50.338;8.810;2022-08-19T05:26:40;12.77;;;10.37;;
20437;SDS011;17436;50.338;8.810;2022-08-19T05:29:11;13.50;;;10.40;;
20437;SDS011;17436;50.338;8.810;2022-08-19T05:31:39;14.07;;;10.60;;
20437;SDS011;17436;50.338;8.810;2022-08-19T05:34:07;15.13;;;9.70;;
20437;SDS011;17436;50.338;8.810;2022-08-19T05:36:35;14.43;;;10.30;;
20437;SDS011;17436;50.338;8.810;2022-08-19T05:39:04;17.50;;;10.77;;
20437;SDS011;17436;50.338;8.810;2022-08-19T05:41:31;12.37;;;9.83;;
20437;SDS011;17436;50.338;8.810;2022-08-19T05:44:01;13.47;;;9.77;;
20437;SDS011;17436;50.338;8.810;2022-08-19T05:46:31;13.80;;;10.10;;
20437;SDS011;17436;50.338;8.810;2022-08-19T05:48:58;10.63;;;9.13;;
20437;SDS011;17436;50.338;8.810;2022-08-19T05:51:26;13.77;;;9.97;;
20437;SDS011;17436;50.338;8.810;2022-08-19T05:53:53;14.30;;;9.83;;
20437;SDS011;17436;50.338;8.810;2022-08-19T05:56:19;12.80;;;9.57;;
20437;SDS011;17436;50.338;8.810;2022-08-19T06:01:23;12.13;;;9.20;;
20437;SDS011;17436;50.338;8.810;2022-08-19T06:03:50;11.57;;;8.83;;
20437;SDS011;17436;50.338;8.810;2022-08-19T06:06:17;14.00;;;9.10;;
20437;SDS011;17436;50.338;8.810;2022-08-19T06:08:46;12.50;;;8.67;;
20437;SDS011;17436;50.338;8.810;2022-08-19T06:11:16;13.03;;;8.47;;
20437;SDS011;17436;50.338;8.810;2022-08-19T06:13:45;14.43;;;9.47;;
20437;SDS011;17436;50.338;8.810;2022-08-19T06:16:15;11.67;;;8.83;;
20437;SDS011;17436;50.338;8.810;2022-08-19T06:18:48;10.03;;;8.10;;
20437;SDS011;17436;50.338;8.810;2022-08-19T06:21:18;11.00;;;8.27;;
20437;SDS011;17436;50.338;8.810;2022-08-19T06:23:47;13.40;;;8.60;;
20437;SDS011;17436;50.338;8.810;2022-08-19T06:26:15;13.10;;;8.13;;
20437;SDS011;17436;50.338;8.810;2022-08-19T06:28:43;12.30;;;8.53;;
20437;SDS011;17436;50.338;8.810;2022-08-19T06:31:12;12.03;;;8.63;;
20437;SDS011;17436;50.338;8.810;2022-08-19T06:33:41;12.30;;;7.87;;
20437;SDS011;17436;50.338;8.810;2022-08-19T06:36:15;10.60;;;7.37;;
20437;SDS011;17436;50.338;8.810;2022-08-19T06:38:42;8.93;;;7.20;;
20437;SDS011;17436;50.338;8.810;2022-08-19T06:41:11;9.53;;;7.23;;
20437;SDS011;17436;50.338;8.810;2022-08-19T06:43:37;10.83;;;6.97;;
20437;SDS011;17436;50.338;8.810;2022-08-19T06:46:09;10.90;;;6.63;;
20437;SDS011;17436;50.338;8.810;2022-08-19T06:48:38;12.40;;;6.50;;
20437;SDS011;17436;50.338;8.810;2022-08-19T06:51:05;7.47;;;6.40;;
20437;SDS011;17436;50.338;8.810;2022-08-19T06:53:31;9.13;;;6.43;;
20437;SDS011;17436;50.338;8.810;2022-08-19T06:55:58;10.57;;;6.80;;
20437;SDS011;17436;50.338;8.810;2022-08-19T06:58:28;8.30;;;5.77;;
20437;SDS011;17436;50.338;8.810;2022-08-19T07:00:59;8.43;;;6.13;;
20437;SDS011;17436;50.338;8.810;2022-08-19T07:03:28;8.17;;;6.47;;
20437;SDS011;17436;50.338;8.810;2022-08-19T07:05:56;7.93;;;5.53;;
20437;SDS011;17436;50.338;8.810;2022-08-19T07:08:28;8.80;;;5.80;;
20437;SDS011;17436;50.338;8.810;2022-08-19T07:10:54;7.47;;;5.20;;
20437;SDS011;17436;50.338;8.810;2022-08-19T07:13:21;8.83;;;5.17;;
20437;SDS011;17436;50.338;8.810;2022-08-19T07:15:49;6.73;;;5.07;;
20437;SDS011;17436;50.338;8.810;2022-08-19T07:18:17;6.80;;;5.13;;
20437;SDS011;17436;50.338;8.810;2022-08-19T07:20:45;10.67;;;5.90;;
20437;SDS011;17436;50.338;8.810;2022-08-19T07:23:12;7.13;;;4.73;;
20437;SDS011;17436;50.338;8.810;2022-08-19T07:25:39;21.70;;;9.47;;
20437;SDS011;17436;50.338;8.810;2022-08-19T07:28:06;6.67;;;4.83;;
20437;SDS011;17436;50.338;8.810;2022-08-19T07:30:35;6.90;;;5.13;;
20437;SDS011;17436;50.338;8.810;2022-08-19T07:33:04;6.03;;;4.87;;
20437;SDS011;17436;50.338;8.810;2022-08-19T07:35:31;6.33;;;4.30;;
20437;SDS011;17436;50.338;8.810;2022-08-19T07:40:29;6.03;;;5.00;;
20437;SDS011;17436;50.338;8.810;2022-08-19T07:43:00;8.53;;;4.70;;
20437;SDS011;17436;50.338;8.810;2022-08-19T07:45:28;10.27;;;4.90;;
20437;SDS011;17436;50.338;8.810;2022-08-19T07:47:55;5.40;;;4.40;;
20437;SDS011;17436;50.338;8.810;2022-08-19T07:50:23;5.77;;;4.37;;
20437;SDS011;17436;50.338;8.810;2022-08-19T07:52:50;6.23;;;5.37;;
20437;SDS011;17436;50.338;8.810;2022-08-19T07:55:18;6.03;;;4.27;;
20437;SDS011;17436;50.338;8.810;2022-08-19T07:57:47;5.07;;;4.00;;
20437;SDS011;17436;50.338;8.810;2022-08-19T08:00:14;5.90;;;4.23;;
20437;SDS011;17436;50.338;8.810;2022-08-19T08:02:41;4.40;;;3.30;;
20437;SDS011;17436;50.338;8.810;2022-08-19T08:05:08;8.07;;;3.77;;
20437;SDS011;17436;50.338;8.810;2022-08-19T08:07:54;8.67;;;4.50;;
20437;SDS011;17436;50.338;8.810;2022-08-19T08:10:38;7.37;;;4.17;;
20437;SDS011;17436;50.338;8.810;2022-08-19T08:13:05;9.40;;;4.30;;
20437;SDS011;17436;50.338;8.810;2022-08-19T08:15:32;10.37;;;4.57;;
20437;SDS011;17436;50.338;8.810;2022-08-19T08:17:59;5.70;;;3.70;;
20437;SDS011;17436;50.338;8.810;2022-08-19T08:20:26;4.32;;;3.17;;
20437;SDS011;17436;50.338;8.810;2022-08-19T08:22:54;7.00;;;3.53;;
20437;SDS011;17436;50.338;8.810;2022-08-19T08:25:38;4.40;;;3.37;;
20437;SDS011;17436;50.338;8.810;2022-08-19T08:28:05;5.90;;;3.95;;
20437;SDS011;17436;50.338;8.810;2022-08-19T08:30:34;5.00;;;3.92;;
20437;SDS011;17436;50.338;8.810;2022-08-19T08:33:02;5.55;;;3.63;;
20437;SDS011;17436;50.338;8.810;2022-08-19T08:35:29;5.50;;;3.97;;
20437;SDS011;17436;50.338;8.810;2022-08-19T08:37:57;6.53;;;3.65;;
20437;SDS011;17436;50.338;8.810;2022-08-19T08:40:26;6.00;;;3.50;;
20437;SDS011;17436;50.338;8.810;2022-08-19T08:42:55;9.07;;;5.10;;
20437;SDS011;17436;50.338;8.810;2022-08-19T08:45:29;6.80;;;3.40;;
20437;SDS011;17436;50.338;8.810;2022-08-19T08:48:00;7.55;;;3.47;;
20437;SDS011;17436;50.338;8.810;2022-08-19T08:50:31;6.53;;;3.92;;
20437;SDS011;17436;50.338;8.810;2022-08-19T08:53:03;5.43;;;3.88;;
20437;SDS011;17436;50.338;8.810;2022-08-19T08:55:32;5.10;;;3.72;;
20437;SDS011;17436;50.338;8.810;2022-08-19T08:58:01;8.15;;;4.18;;
20437;SDS011;17436;50.338;8.810;2022-08-19T09:00:31;7.60;;;5.30;;
20437;SDS011;17436;50.338;8.810;2022-08-19T09:03:00;29.63;;;19.90;;
20437;SDS011;17436;50.338;8.810;2022-08-19T09:05:30;89.25;;;48.28;;
20437;SDS011;17436;50.338;8.810;2022-08-19T09:08:10;15.23;;;4.97;;
20437;SDS011;17436;50.338;8.810;2022-08-19T09:10:44;8.13;;;5.10;;
20437;SDS011;17436;50.338;8.810;2022-08-19T09:13:27;9.67;;;6.30;;
20437;SDS011;17436;50.338;8.810;2022-08-19T09:16:00;9.13;;;5.37;;
20437;SDS011;17436;50.338;8.810;2022-08-19T09:18:38;10.10;;;6.40;;
20437;SDS011;17436;50.338;8.810;2022-08-19T09:21:07;10.47;;;6.10;;
20437;SDS011;17436;50.338;8.810;2022-08-19T09:23:35;5.97;;;4.05;;
20437;SDS011;17436;50.338;8.810;2022-08-19T09:26:06;9.20;;;5.75;;
20437;SDS011;17436;50.338;8.810;2022-08-19T09:28:34;7.03;;;4.90;;
20437;SDS011;17436;50.338;8.810;2022-08-19T09:31:02;6.65;;;3.95;;
20437;SDS011;17436;50.338;8.810;2022-08-19T09:33:28;8.80;;;5.10;;
20437;SDS011;17436;50.338;8.810;2022-08-19T09:36:01;6.53;;;4.10;;
20437;SDS011;17436;50.338;8.810;2022-08-19T09:38:30;6.53;;;4.97;;
20437;SDS011;17436;50.338;8.810;2022-08-19T09:41:02;8.37;;;5.33;;
20437;SDS011;17436;50.338;8.810;2022-08-19T09:43:33;6.90;;;3.75;;
20437;SDS011;17436;50.338;8.810;2022-08-19T09:46:02;6.82;;;4.90;;
20437;SDS011;17436;50.338;8.810;2022-08-19T09:48:30;7.47;;;3.90;;
20437;SDS011;17436;50.338;8.810;2022-08-19T09:51:01;9.23;;;4.38;;
20437;SDS011;17436;50.338;8.810;2022-08-19T09:53:29;10.18;;;3.90;;
20437;SDS011;17436;50.338;8.810;2022-08-19T09:55:56;14.05;;;6.78;;
20437;SDS011;17436;50.338;8.810;2022-08-19T09:58:24;12.77;;;4.95;;
20437;SDS011;17436;50.338;8.810;2022-08-19T10:00:52;13.07;;;5.82;;
20437;SDS011;17436;50.338;8.810;2022-08-19T10:03:20;11.82;;;5.60;;
20437;SDS011;17436;50.338;8.810;2022-08-19T10:05:47;24.55;;;9.40;;
20437;SDS011;17436;50.338;8.810;2022-08-19T10:08:17;4.32;;;3.67;;
20437;SDS011;17436;50.338;8.810;2022-08-19T10:10:45;8.70;;;4.28;;
20437;SDS011;17436;50.338;8.810;2022-08-19T10:13:13;8.95;;;4.78;;
20437;SDS011;17436;50.338;8.810;2022-08-19T10:15:43;6.45;;;4.13;;
20437;SDS011;17436;50.338;8.810;2022-08-19T10:18:10;12.10;;;5.78;;
20437;SDS011;17436;50.338;8.810;2022-08-19T10:20:37;8.25;;;4.43;;
20437;SDS011;17436;50.338;8.810;2022-08-19T10:23:04;9.43;;;4.20;;
20437;SDS011;17436;50.338;8.810;2022-08-19T10:25:31;7.55;;;4.30;;
20437;SDS011;17436;50.338;8.810;2022-08-19T10:27:59;5.95;;;3.92;;
20437;SDS011;17436;50.338;8.810;2022-08-19T10:30:26;6.03;;;4.20;;
20437;SDS011;17436;50.338;8.810;2022-08-19T10:32:55;85.38;;;19.35;;
20437;SDS011;17436;50.338;8.810;2022-08-19T10:35:27;10.63;;;5.47;;
20437;SDS011;17436;50.338;8.810;2022-08-19T10:37:54;5.28;;;3.35;;
20437;SDS011;17436;50.338;8.810;2022-08-19T10:40:24;10.48;;;3.75;;
20437;SDS011;17436;50.338;8.810;2022-08-19T10:42:53;4.63;;;3.83;;
20437;SDS011;17436;50.338;8.810;2022-08-19T10:45:22;6.10;;;3.38;;
20437;SDS011;17436;50.338;8.810;2022-08-19T10:47:50;5.68;;;4.03;;
20437;SDS011;17436;50.338;8.810;2022-08-19T10:50:19;3.90;;;3.22;;
20437;SDS011;17436;50.338;8.810;2022-08-19T10:53:05;8.00;;;4.93;;
20437;SDS011;17436;50.338;8.810;2022-08-19T10:55:33;5.97;;;3.45;;
20437;SDS011;17436;50.338;8.810;2022-08-19T10:58:19;7.07;;;3.78;;
20437;SDS011;17436;50.338;8.810;2022-08-19T11:00:51;7.03;;;3.65;;
20437;SDS011;17436;50.338;8.810;2022-08-19T11:03:19;5.35;;;3.65;;
20437;SDS011;17436;50.338;8.810;2022-08-19T11:05:51;6.40;;;3.70;;
20437;SDS011;17436;50.338;8.810;2022-08-19T11:08:23;4.88;;;3.50;;
20437;SDS011;17436;50.338;8.810;2022-08-19T11:10:51;4.20;;;3.72;;
20437;SDS011;17436;50.338;8.810;2022-08-19T11:13:20;7.78;;;4.32;;
20437;SDS011;17436;50.338;8.810;2022-08-19T11:15:55;3.53;;;3.15;;
20437;SDS011;17436;50.338;8.810;2022-08-19T11:18:22;4.90;;;3.83;;
20437;SDS011;17436;50.338;8.810;2022-08-19T11:20:50;5.70;;;3.20;;
20437;SDS011;17436;50.338;8.810;2022-08-19T11:23:17;5.75;;;4.40;;
20437;SDS011;17436;50.338;8.810;2022-08-19T11:25:44;5.78;;;3.55;;
20437;SDS011;17436;50.338;8.810;2022-08-19T11:28:11;5.18;;;3.90;;
20437;SDS011;17436;50.338;8.810;2022-08-19T11:30:38;4.07;;;3.25;;
20437;SDS011;17436;50.338;8.810;2022-08-19T11:33:05;5.20;;;3.70;;
20437;SDS011;17436;50.338;8.810;2022-08-19T11:35:31;5.30;;;3.38;;
20437;SDS011;17436;50.338;8.810;2022-08-19T11:38:00;3.83;;;3.40;;
20437;SDS011;17436;50.338;8.810;2022-08-19T11:40:27;3.90;;;3.08;;
20437;SDS011;17436;50.338;8.810;2022-08-19T11:42:55;4.65;;;3.33;;
20437;SDS011;17436;50.338;8.810;2022-08-19T11:45:23;4.65;;;3.50;;
20437;SDS011;17436;50.338;8.810;2022-08-19T11:47:50;6.00;;;3.50;;
20437;SDS011;17436;50.338;8.810;2022-08-19T11:50:17;4.80;;;3.50;;
20437;SDS011;17436;50.338;8.810;2022-08-19T11:52:44;5.00;;;3.80;;
20437;SDS011;17436;50.338;8.810;2022-08-19T11:55:13;5.55;;;4.00;;
20437;SDS011;17436;50.338;8.810;2022-08-19T11:57:39;6.03;;;3.90;;
20437;SDS011;17436;50.338;8.810;2022-08-19T12:00:08;6.63;;;4.88;;
20437;SDS011;17436;50.338;8.810;2022-08-19T12:02:37;5.93;;;4.10;;
20437;SDS011;17436;50.338;8.810;2022-08-19T12:05:04;5.40;;;4.28;;
20437;SDS011;17436;50.338;8.810;2022-08-19T12:07:32;5.05;;;4.55;;
20437;SDS011;17436;50.338;8.810;2022-08-19T12:09:59;6.30;;;4.20;;
20437;SDS011;17436;50.338;8.810;2022-08-19T12:12:27;4.95;;;3.72;;
20437;SDS011;17436;50.338;8.810;2022-08-19T12:14:54;9.88;;;8.13;;
20437;SDS011;17436;50.338;8.810;2022-08-19T12:17:23;27.40;;;24.45;;
20437;SDS011;17436;50.338;8.810;2022-08-19T12:19:50;24.95;;;14.25;;
20437;SDS011;17436;50.338;8.810;2022-08-19T12:22:17;5.32;;;4.40;;
20437;SDS011;17436;50.338;8.810;2022-08-19T12:24:44;5.22;;;3.92;;
20437;SDS011;17436;50.338;8.810;2022-08-19T12:27:11;4.40;;;4.00;;
20437;SDS011;17436;50.338;8.810;2022-08-19T12:29:39;5.75;;;4.20;;
20437;SDS011;17436;50.338;8.810;2022-08-19T12:32:06;7.82;;;4.80;;
20437;SDS011;17436;50.338;8.810;2022-08-19T12:34:33;5.90;;;4.80;;
20437;SDS011;17436;50.338;8.810;2022-08-19T12:37:02;5.45;;;4.13;;
20437;SDS011;17436;50.338;8.810;2022-08-19T12:39:33;6.05;;;4.20;;
20437;SDS011;17436;50.338;8.810;2022-08-19T12:42:01;5.35;;;4.80;;
20437;SDS011;17436;50.338;8.810;2022-08-19T12:44:27;5.90;;;4.70;;
20437;SDS011;17436;50.338;8.810;2022-08-19T12:46:56;5.13;;;4.20;;
20437;SDS011;17436;50.338;8.810;2022-08-19T12:49:24;4.85;;;4.35;;
20437;SDS011;17436;50.338;8.810;2022-08-19T12:51:50;7.38;;;4.30;;
20437;SDS011;17436;50.338;8.810;2022-08-19T12:54:17;8.05;;;4.82;;
20437;SDS011;17436;50.338;8.810;2022-08-19T12:56:45;8.10;;;4.47;;
20437;SDS011;17436;50.338;8.810;2022-08-19T12:59:11;5.93;;;5.32;;
20437;SDS011;17436;50.338;8.810;2022-08-19T13:01:41;6.35;;;4.55;;
20437;SDS011;17436;50.338;8.810;2022-08-19T13:04:10;6.90;;;4.50;;
20437;SDS011;17436;50.338;8.810;2022-08-19T13:06:37;7.18;;;4.88;;
20437;SDS011;17436;50.338;8.810;2022-08-19T13:09:04;5.32;;;4.82;;
20437;SDS011;17436;50.338;8.810;2022-08-19T13:11:31;6.65;;;4.88;;
20437;SDS011;17436;50.338;8.810;2022-08-19T13:13:59;5.60;;;4.63;;
20437;SDS011;17436;50.338;8.810;2022-08-19T13:16:26;6.05;;;5.22;;
20437;SDS011;17436;50.338;8.810;2022-08-19T13:18:54;6.15;;;5.18;;
20437;SDS011;17436;50.338;8.810;2022-08-19T13:21:25;8.27;;;5.35;;
20437;SDS011;17436;50.338;8.810;2022-08-19T13:23:54;8.20;;;5.70;;
20437;SDS011;17436;50.338;8.810;2022-08-19T13:26:21;6.05;;;5.30;;
20437;SDS011;17436;50.338;8.810;2022-08-19T13:28:48;8.05;;;5.07;;
20437;SDS011;17436;50.338;8.810;2022-08-19T13:31:34;7.45;;;5.38;;
20437;SDS011;17436;50.338;8.810;2022-08-19T13:34:26;8.98;;;6.03;;
20437;SDS011;17436;50.338;8.810;2022-08-19T13:36:58;6.68;;;5.22;;
20437;SDS011;17436;50.338;8.810;2022-08-19T13:39:28;13.43;;;6.20;;
20437;SDS011;17436;50.338;8.810;2022-08-19T13:41:55;11.27;;;5.82;;
20437;SDS011;17436;50.338;8.810;2022-08-19T13:44:22;6.90;;;6.20;;
20437;SDS011;17436;50.338;8.810;2022-08-19T13:46:49;10.52;;;5.80;;
20437;SDS011;17436;50.338;8.810;2022-08-19T13:49:18;8.48;;;5.93;;
20437;SDS011;17436;50.338;8.810;2022-08-19T13:51:45;8.43;;;6.05;;
20437;SDS011;17436;50.338;8.810;2022-08-19T13:54:13;7.43;;;6.05;;
20437;SDS011;17436;50.338;8.810;2022-08-19T13:56:40;7.55;;;5.97;;
20437;SDS011;17436;50.338;8.810;2022-08-19T13:59:08;7.22;;;5.70;;
20437;SDS011;17436;50.338;8.810;2022-08-19T14:01:34;7.50;;;5.75;;
20437;SDS011;17436;50.338;8.810;2022-08-19T14:04:01;9.60;;;6.53;;
20437;SDS011;17436;50.338;8.810;2022-08-19T14:06:28;7.07;;;6.28;;
20437;SDS011;17436;50.338;8.810;2022-08-19T14:08:55;8.50;;;5.82;;
20437;SDS011;17436;50.338;8.810;2022-08-19T14:11:23;9.10;;;6.38;;
20437;SDS011;17436;50.338;8.810;2022-08-19T14:13:50;7.40;;;6.18;;
20437;SDS011;17436;50.338;8.810;2022-08-19T14:16:17;7.30;;;6.55;;
20437;SDS011;17436;50.338;8.810;2022-08-19T14:18:44;9.18;;;6.40;;
20437;SDS011;17436;50.338;8.810;2022-08-19T14:21:14;11.18;;;6.25;;
20437;SDS011;17436;50.338;8.810;2022-08-19T14:23:42;9.43;;;5.72;;
20437;SDS011;17436;50.338;8.810;2022-08-19T14:26:11;14.40;;;6.13;;
20437;SDS011;17436;50.338;8.810;2022-08-19T14:28:41;7.28;;;5.95;;
20437;SDS011;17436;50.338;8.810;2022-08-19T14:31:08;7.00;;;5.90;;
20437;SDS011;17436;50.338;8.810;2022-08-19T14:33:35;9.10;;;6.05;;
20437;SDS011;17436;50.338;8.810;2022-08-19T14:36:02;7.55;;;5.60;;
20437;SDS011;17436;50.338;8.810;2022-08-19T14:38:29;8.90;;;5.90;;
20437;SDS011;17436;50.338;8.810;2022-08-19T14:41:04;9.98;;;6.32;;
20437;SDS011;17436;50.338;8.810;2022-08-19T14:43:32;5.65;;;5.13;;
20437;SDS011;17436;50.338;8.810;2022-08-19T14:46:00;7.05;;;5.53;;
20437;SDS011;17436;50.338;8.810;2022-08-19T14:48:27;8.38;;;5.65;;
20437;SDS011;17436;50.338;8.810;2022-08-19T14:50:54;7.38;;;5.97;;